Time;durP1;ratioP1;P1;durP2;ratioP2;P2;SDS_P1;SDS_P2;PMS_P1;PMS_P2;Temp;Humidity;BMP_temperature;BMP_pressure;BME280_temperature;BME280_humidity;BME280_pressure;Samples;Min_cycle;Max_cycle;Signal;HPM_P1;HPM_P2
2021/12/19 00:10:20;;;;;;;1.70;1.40;;;6.90;98.20;;;;;;5043533;28;20457;-77
2021/12/19 00:12:47;;;;;;;1.63;1.30;;;6.90;98.20;;;;;;5044394;28;20502;-75
2021/12/19 00:15:13;;;;;;;1.60;1.30;;;6.90;98.20;;;;;;5044415;28;20466;-75
2021/12/19 00:17:40;;;;;;;1.70;1.40;;;6.90;98.20;;;;;;5043473;28;20486;-75
2021/12/19 00:20:10;;;;;;;1.60;1.30;;;6.90;98.20;;;;;;5042614;28;21068;-75
2021/12/19 00:22:37;;;;;;;1.63;1.30;;;6.90;98.20;;;;;;5043051;28;20486;-75
2021/12/19 00:25:05;;;;;;;1.63;1.30;;;6.90;98.20;;;;;;5043711;28;20844;-75
2021/12/19 00:27:32;;;;;;;1.60;1.40;;;6.90;98.20;;;;;;5040166;28;20486;-74
2021/12/19 00:29:59;;;;;;;1.60;1.27;;;6.90;98.20;;;;;;5042782;28;20478;-75
2021/12/19 00:32:26;;;;;;;1.60;1.30;;;6.90;98.20;;;;;;5043705;28;20466;-75
2021/12/19 00:34:53;;;;;;;1.63;1.40;;;6.90;98.20;;;;;;5043984;28;20466;-75
2021/12/19 00:37:23;;;;;;;1.63;1.23;;;6.90;98.20;;;;;;5043630;28;20611;-75
2021/12/19 00:39:50;;;;;;;1.70;1.30;;;6.90;98.20;;;;;;5048318;28;20737;-75
2021/12/19 00:42:27;;;;;;;1.60;1.30;;;6.90;98.20;;;;;;5042483;28;20490;-75
2021/12/19 00:44:54;;;;;;;1.60;1.20;;;6.90;98.20;;;;;;5047660;28;20994;-75
2021/12/19 00:47:21;;;;;;;1.60;1.27;;;6.90;98.20;;;;;;5043996;28;20507;-75
2021/12/19 00:49:48;;;;;;;1.60;1.20;;;6.90;98.20;;;;;;5041842;28;20490;-75
2021/12/19 00:52:14;;;;;;;1.60;1.30;;;6.90;98.20;;;;;;5041616;28;20542;-75
2021/12/19 00:54:43;;;;;;;1.60;1.30;;;6.90;98.20;;;;;;5040759;28;20884;-74
2021/12/19 00:57:09;;;;;;;1.63;1.30;;;6.90;98.20;;;;;;5041709;28;20490;-75
2021/12/19 00:59:36;;;;;;;1.60;1.30;;;6.90;98.20;;;;;;5044221;28;20469;-75
2021/12/19 01:02:03;;;;;;;1.60;1.27;;;6.90;98.20;;;;;;5042305;28;20489;-75
2021/12/19 01:04:30;;;;;;;1.60;1.30;;;6.90;98.20;;;;;;5043469;28;20471;-75
2021/12/19 01:07:00;;;;;;;1.67;1.30;;;6.90;98.20;;;;;;5043542;28;20486;-76
2021/12/19 01:09:27;;;;;;;1.60;1.30;;;6.90;98.20;;;;;;5043754;28;20545;-76
2021/12/19 01:11:57;;;;;;;1.60;1.30;;;6.90;98.20;;;;;;5042349;28;20823;-76
2021/12/19 01:14:24;;;;;;;1.60;1.30;;;6.90;98.20;;;;;;5039767;28;21009;-76
2021/12/19 01:16:51;;;;;;;1.60;1.20;;;6.90;98.20;;;;;;5043814;28;21357;-76
2021/12/19 01:19:17;;;;;;;1.67;1.30;;;6.90;98.20;;;;;;5106983;22;20497;-76
2021/12/19 01:21:45;;;;;;;1.70;1.40;;;6.90;98.20;;;;;;5063500;28;20894;-76
2021/12/19 01:24:12;;;;;;;1.60;1.20;;;6.90;98.20;;;;;;5064130;28;20544;-76
2021/12/19 01:26:42;;;;;;;1.60;1.20;;;6.90;98.20;;;;;;5064837;28;20462;-76
2021/12/19 01:29:10;;;;;;;1.63;1.20;;;6.90;98.20;;;;;;5061947;28;20486;-76
2021/12/19 01:31:37;;;;;;;1.60;1.30;;;6.90;98.20;;;;;;5051373;28;20473;-75
2021/12/19 01:34:03;;;;;;;1.60;1.30;;;6.90;98.20;;;;;;5045146;28;20875;-75
2021/12/19 01:36:30;;;;;;;1.60;1.30;;;6.90;98.20;;;;;;5045785;28;20469;-76
2021/12/19 01:38:57;;;;;;;1.63;1.30;;;6.90;98.20;;;;;;5044617;28;20810;-75
2021/12/19 01:41:24;;;;;;;1.60;1.30;;;6.90;98.20;;;;;;5044825;28;20473;-75
2021/12/19 01:43:50;;;;;;;1.63;1.30;;;6.90;98.20;;;;;;5045114;28;20467;-76
2021/12/19 01:46:18;;;;;;;1.63;1.30;;;6.90;98.20;;;;;;5049828;28;20466;-75
2021/12/19 01:48:45;;;;;;;1.60;1.20;;;6.90;98.20;;;;;;5044615;28;20482;-75
2021/12/19 01:51:12;;;;;;;1.60;1.30;;;6.90;98.20;;;;;;5045212;28;20474;-76
2021/12/19 01:53:39;;;;;;;1.63;1.30;;;6.90;98.20;;;;;;5045175;28;20462;-75
2021/12/19 01:56:07;;;;;;;1.67;1.33;;;6.90;98.20;;;;;;5045295;28;20466;-76
2021/12/19 01:58:34;;;;;;;1.60;1.30;;;6.90;98.20;;;;;;5053760;28;20466;-76
2021/12/19 02:01:01;;;;;;;1.60;1.20;;;6.90;98.20;;;;;;5052092;28;20466;-75
2021/12/19 02:03:30;;;;;;;1.67;1.30;;;6.90;98.20;;;;;;5051325;28;20489;-75
2021/12/19 02:05:57;;;;;;;1.60;1.30;;;6.90;98.20;;;;;;5044815;28;20470;-76
2021/12/19 02:08:23;;;;;;;1.67;1.33;;;6.90;98.20;;;;;;5049129;28;20465;-76
2021/12/19 02:10:50;;;;;;;1.70;1.40;;;6.90;98.20;;;;;;5034916;28;20462;-76
2021/12/19 02:13:18;;;;;;;1.60;1.20;;;6.90;98.20;;;;;;5048177;28;20469;-75
2021/12/19 02:15:46;;;;;;;1.70;1.30;;;6.90;98.20;;;;;;5048856;28;20466;-76
2021/12/19 02:18:16;;;;;;;1.60;1.30;;;6.90;98.20;;;;;;5026668;28;20987;-75
2021/12/19 02:20:49;;;;;;;1.60;1.30;;;6.90;98.20;;;;;;5037097;28;20873;-75
2021/12/19 02:23:17;;;;;;;1.60;1.20;;;6.90;98.20;;;;;;5051211;28;20493;-75
2021/12/19 02:25:44;;;;;;;1.63;1.30;;;6.90;98.20;;;;;;5049367;28;20469;-75
2021/12/19 02:28:12;;;;;;;1.60;1.30;;;6.90;98.20;;;;;;5048911;28;20470;-75
2021/12/19 02:30:39;;;;;;;1.60;1.20;;;6.90;98.20;;;;;;5043614;28;20796;-75
2021/12/19 02:33:10;;;;;;;1.67;1.30;;;6.90;98.20;;;;;;5043458;28;21106;-75
2021/12/19 02:35:37;;;;;;;1.60;1.30;;;6.90;98.20;;;;;;5049552;28;20462;-73
2021/12/19 02:49:04;;;;;;;1.60;1.30;;;6.90;98.20;;;;;;5044510;28;20516;-74
2021/12/19 02:51:34;;;;;;;1.60;1.20;;;6.90;98.20;;;;;;5044301;28;20466;-75
2021/12/19 02:54:04;;;;;;;1.60;1.20;;;6.90;98.20;;;;;;5051072;28;20463;-74
2021/12/19 02:56:31;;;;;;;1.60;1.20;;;6.90;98.20;;;;;;5052467;28;20461;-74
2021/12/19 02:58:58;;;;;;;1.70;1.40;;;6.90;98.20;;;;;;5045866;28;20569;-75
2021/12/19 03:01:25;;;;;;;1.60;1.20;;;7.00;98.20;;;;;;5043884;28;20893;-75
2021/12/19 03:03:52;;;;;;;1.70;1.40;;;7.00;98.20;;;;;;5045079;28;20497;-74
2021/12/19 03:06:19;;;;;;;1.60;1.27;;;7.00;98.20;;;;;;5045330;28;20474;-75
2021/12/19 03:08:49;;;;;;;1.60;1.30;;;7.00;98.20;;;;;;5046707;28;20477;-75
2021/12/19 03:19:32;;;;;;;1.63;1.30;;;6.90;98.20;;;;;;5048736;28;21060;-75
2021/12/19 03:21:58;;;;;;;1.67;1.30;;;6.90;98.20;;;;;;5050500;28;20469;-76
2021/12/19 03:24:25;;;;;;;1.70;1.30;;;7.00;98.20;;;;;;5049793;28;20511;-75
2021/12/19 03:26:53;;;;;;;1.67;1.30;;;6.90;98.20;;;;;;5056859;28;20929;-76
2021/12/19 03:29:20;;;;;;;1.60;1.20;;;6.90;98.20;;;;;;5052072;28;20982;-76
2021/12/19 03:31:47;;;;;;;1.60;1.30;;;6.90;98.20;;;;;;5047441;28;20850;-75
2021/12/19 03:34:14;;;;;;;1.60;1.30;;;6.90;98.20;;;;;;5049827;28;20469;-75
2021/12/19 03:36:40;;;;;;;1.60;1.30;;;6.90;98.20;;;;;;5048789;28;20468;-75
2021/12/19 03:39:14;;;;;;;1.60;1.20;;;6.90;98.20;;;;;;5048257;28;21018;-75
2021/12/19 03:41:42;;;;;;;1.63;1.30;;;6.90;98.20;;;;;;5050571;28;20470;-75
2021/12/19 03:44:10;;;;;;;1.67;1.30;;;6.90;98.20;;;;;;5050019;28;20821;-76
2021/12/19 03:46:37;;;;;;;1.60;1.30;;;7.00;98.20;;;;;;5049817;28;20474;-75
2021/12/19 03:49:04;;;;;;;1.60;1.30;;;7.00;98.20;;;;;;5048334;28;20485;-75
2021/12/19 03:51:31;;;;;;;1.63;1.27;;;7.00;98.20;;;;;;5046997;28;20918;-75
2021/12/19 03:53:57;;;;;;;1.63;1.30;;;6.90;98.20;;;;;;5048798;28;20835;-75
2021/12/19 03:56:24;;;;;;;1.67;1.30;;;6.90;98.20;;;;;;5055852;28;20461;-75
2021/12/19 03:58:52;;;;;;;1.60;1.27;;;6.90;98.20;;;;;;5055271;28;20478;-75
2021/12/19 04:01:20;;;;;;;1.67;1.37;;;7.00;98.20;;;;;;5053025;28;20890;-75
2021/12/19 04:03:47;;;;;;;1.67;1.30;;;7.00;98.20;;;;;;5057203;28;20486;-76
2021/12/19 04:06:14;;;;;;;1.67;1.30;;;7.00;98.20;;;;;;5048269;28;20459;-76
2021/12/19 04:08:41;;;;;;;2.57;2.37;;;7.00;98.20;;;;;;5049195;28;20982;-75
2021/12/19 04:11:08;;;;;;;1.60;1.20;;;7.00;98.20;;;;;;5049714;28;20459;-76
2021/12/19 04:13:35;;;;;;;1.60;1.30;;;7.00;98.20;;;;;;5049336;28;20466;-75
2021/12/19 04:16:02;;;;;;;1.70;1.30;;;7.00;98.20;;;;;;5049001;28;20946;-75
2021/12/19 04:18:30;;;;;;;1.60;1.30;;;6.90;98.20;;;;;;5047195;28;20466;-74
2021/12/19 04:20:57;;;;;;;1.60;1.20;;;6.90;98.20;;;;;;5048728;28;20498;-75
2021/12/19 04:23:24;;;;;;;2.63;2.43;;;6.90;98.20;;;;;;5049405;28;20501;-74
2021/12/19 04:25:52;;;;;;;1.70;1.40;;;6.90;98.20;;;;;;5055401;28;20955;-75
2021/12/19 04:28:19;;;;;;;1.60;1.20;;;7.00;98.20;;;;;;5054480;28;20516;-75
2021/12/19 04:30:46;;;;;;;1.63;1.30;;;7.00;98.20;;;;;;5048650;28;20477;-75
2021/12/19 04:33:13;;;;;;;1.60;1.20;;;7.00;98.20;;;;;;5047964;28;20731;-75
2021/12/19 04:35:44;;;;;;;1.60;1.20;;;7.00;98.20;;;;;;5056658;28;20853;-74
2021/12/19 04:39:00;;;;;;;1.60;1.30;;;7.00;98.20;;;;;;5047768;28;21837;-75
2021/12/19 04:44:33;;;;;;;1.63;1.30;;;7.00;98.20;;;;;;5048980;28;20488;-75
2021/12/19 04:56:17;;;;;;;1.60;1.30;;;6.90;98.20;;;;;;5040510;27;20553;-74
2021/12/19 04:59:11;;;;;;;1.60;1.30;;;7.00;98.20;;;;;;5032142;27;20849;-74
2021/12/19 05:15:48;;;;;;;1.60;1.27;;;7.00;98.20;;;;;;5085195;28;20479;-75
2021/12/19 05:18:14;;;;;;;1.60;1.30;;;7.00;98.20;;;;;;5085369;28;20555;-75
2021/12/19 05:20:51;;;;;;;1.60;1.30;;;7.00;98.20;;;;;;5085084;28;20576;-75
2021/12/19 05:23:25;;;;;;;1.60;1.23;;;7.00;98.20;;;;;;5085691;28;20476;-75
2021/12/19 05:25:52;;;;;;;1.60;1.30;;;7.00;98.20;;;;;;5084218;28;20891;-75
2021/12/19 05:28:19;;;;;;;1.63;1.30;;;7.00;98.20;;;;;;5082233;28;20480;-75
2021/12/19 05:30:46;;;;;;;1.60;1.30;;;7.00;98.20;;;;;;5085317;28;20464;-75
2021/12/19 05:33:13;;;;;;;1.70;1.30;;;7.00;98.20;;;;;;5085524;28;20465;-75
2021/12/19 05:36:06;;;;;;;1.60;1.20;;;7.00;98.20;;;;;;5084873;28;21024;-75
2021/12/19 05:44:15;;;;;;;1.60;1.30;;;7.00;98.20;;;;;;5083464;28;20482;-75
2021/12/19 05:46:43;;;;;;;1.60;1.20;;;7.00;98.20;;;;;;5084879;28;21004;-75
2021/12/19 05:49:10;;;;;;;1.63;1.30;;;7.00;98.20;;;;;;5084982;28;20484;-75
2021/12/19 05:51:39;;;;;;;1.70;1.40;;;7.00;98.20;;;;;;5084719;28;20965;-75
2021/12/19 05:54:09;;;;;;;1.70;1.47;;;7.00;98.20;;;;;;5081748;28;20892;-75
2021/12/19 05:56:36;;;;;;;1.70;1.40;;;7.00;98.20;;;;;;5081829;28;20510;-75
2021/12/19 05:59:03;;;;;;;1.67;1.37;;;7.00;98.20;;;;;;5083215;28;20484;-75
2021/12/19 06:01:30;;;;;;;1.60;1.20;;;7.00;98.20;;;;;;5084118;28;20843;-75
2021/12/19 06:03:56;;;;;;;1.70;1.40;;;7.00;98.20;;;;;;5084586;28;20456;-75
2021/12/19 06:06:26;;;;;;;1.60;1.20;;;7.00;98.20;;;;;;5084062;28;20485;-75
2021/12/19 06:08:52;;;;;;;1.70;1.30;;;7.00;98.20;;;;;;5080986;28;20820;-75
2021/12/19 06:11:20;;;;;;;1.70;1.40;;;6.90;98.20;;;;;;5084053;28;20765;-75
2021/12/19 06:13:47;;;;;;;1.60;1.23;;;6.90;98.20;;;;;;5084509;28;20980;-75
2021/12/19 06:16:14;;;;;;;1.60;1.20;;;7.00;98.20;;;;;;5083651;28;20461;-75
2021/12/19 06:18:41;;;;;;;1.60;1.27;;;6.90;98.20;;;;;;5068166;28;20481;-75
2021/12/19 06:21:08;;;;;;;1.60;1.20;;;6.90;98.20;;;;;;5063653;28;20844;-73
2021/12/19 06:23:35;;;;;;;1.60;1.30;;;6.90;98.20;;;;;;5068348;28;20457;-74
2021/12/19 06:26:02;;;;;;;1.63;1.30;;;6.90;98.20;;;;;;5069028;28;20485;-75
2021/12/19 06:28:30;;;;;;;1.70;1.40;;;6.90;98.20;;;;;;5069026;28;20476;-72
2021/12/19 06:30:57;;;;;;;1.70;1.43;;;6.90;98.20;;;;;;5069719;28;20523;-73
2021/12/19 06:33:24;;;;;;;1.60;1.20;;;6.90;98.20;;;;;;5069274;28;20902;-73
2021/12/19 06:35:51;;;;;;;1.63;1.30;;;6.90;98.20;;;;;;5069053;28;20465;-73
2021/12/19 06:38:18;;;;;;;1.60;1.23;;;6.90;98.20;;;;;;5066882;28;20490;-73
2021/12/19 06:40:45;;;;;;;1.60;1.30;;;6.90;98.20;;;;;;5069526;28;20461;-73
2021/12/19 06:43:12;;;;;;;1.93;1.63;;;6.90;98.20;;;;;;5069315;28;20515;-73
2021/12/19 06:45:41;;;;;;;1.83;1.73;;;6.90;98.20;;;;;;5069046;28;20465;-73
2021/12/19 06:48:08;;;;;;;1.60;1.30;;;6.90;98.20;;;;;;5069826;28;20904;-72
2021/12/19 06:50:35;;;;;;;1.63;1.30;;;6.90;98.20;;;;;;5069418;28;20721;-73
2021/12/19 06:53:01;;;;;;;1.60;1.30;;;6.90;98.20;;;;;;5068844;28;20545;-72
2021/12/19 06:55:29;;;;;;;1.60;1.40;;;6.90;98.20;;;;;;5068451;28;20779;-73
2021/12/19 06:57:55;;;;;;;1.90;1.70;;;6.90;98.20;;;;;;5067860;28;20467;-73
2021/12/19 07:00:25;;;;;;;1.63;1.30;;;6.90;98.20;;;;;;5069156;28;20489;-73
2021/12/19 07:02:55;;;;;;;1.60;1.30;;;6.90;98.20;;;;;;5068847;28;20461;-73
2021/12/19 07:05:22;;;;;;;1.70;1.33;;;6.90;98.20;;;;;;5068861;28;20469;-73
2021/12/19 07:07:49;;;;;;;1.60;1.30;;;6.90;98.20;;;;;;5068648;28;20583;-73
2021/12/19 07:10:16;;;;;;;1.63;1.30;;;6.90;98.20;;;;;;5068751;28;20488;-73
2021/12/19 07:12:43;;;;;;;1.70;1.30;;;6.80;98.20;;;;;;5068446;28;20473;-73
2021/12/19 07:15:14;;;;;;;1.60;1.30;;;6.80;98.20;;;;;;5068648;28;20469;-73
2021/12/19 07:17:40;;;;;;;1.70;1.50;;;6.80;98.20;;;;;;5068943;28;21034;-75
2021/12/19 07:20:09;;;;;;;1.63;1.37;;;6.80;98.20;;;;;;5062520;22;20901;-75
2021/12/19 07:22:36;;;;;;;1.70;1.40;;;6.80;98.20;;;;;;5013710;28;20862;-75
2021/12/19 07:25:04;;;;;;;1.60;1.30;;;6.80;98.20;;;;;;5009816;28;20460;-75
2021/12/19 07:27:31;;;;;;;1.60;1.30;;;6.70;98.20;;;;;;5008535;28;20488;-75
2021/12/19 07:29:58;;;;;;;1.63;1.30;;;6.70;98.20;;;;;;5004153;28;20910;-75
2021/12/19 07:32:25;;;;;;;1.60;1.30;;;6.70;98.20;;;;;;5009351;28;20472;-75
2021/12/19 07:34:52;;;;;;;1.67;1.37;;;6.60;98.20;;;;;;5008845;28;20456;-75
2021/12/19 07:37:20;;;;;;;1.60;1.30;;;6.60;98.20;;;;;;5008542;28;20825;-74
2021/12/19 07:39:55;;;;;;;1.60;1.30;;;6.60;98.20;;;;;;5008511;28;20574;-75
2021/12/19 07:42:22;;;;;;;1.60;1.20;;;6.60;98.20;;;;;;5007265;28;20947;-75
2021/12/19 07:44:49;;;;;;;1.60;1.30;;;6.60;98.20;;;;;;5003471;28;20461;-74
2021/12/19 07:47:16;;;;;;;1.60;1.30;;;6.60;98.20;;;;;;5007885;28;20491;-75
2021/12/19 07:49:43;;;;;;;1.60;1.30;;;6.50;98.20;;;;;;5006677;28;20488;-74
2021/12/19 07:52:10;;;;;;;1.70;1.40;;;6.50;98.20;;;;;;5006090;28;20464;-73
2021/12/19 07:54:38;;;;;;;1.60;1.30;;;6.50;98.20;;;;;;5011248;28;20494;-73
2021/12/19 07:57:06;;;;;;;1.63;1.30;;;6.50;98.20;;;;;;5008145;28;20996;-74
2021/12/19 07:59:32;;;;;;;1.60;1.30;;;6.50;98.20;;;;;;5007695;28;20566;-73
2021/12/19 08:02:00;;;;;;;1.60;1.30;;;6.50;98.20;;;;;;5006821;28;20468;-73
2021/12/19 08:04:27;;;;;;;1.63;1.30;;;6.50;98.20;;;;;;5007631;28;20472;-73
2021/12/19 08:06:54;;;;;;;1.60;1.30;;;6.50;98.20;;;;;;5006811;28;20495;-74
2021/12/19 08:09:35;;;;;;;1.70;1.40;;;6.50;98.20;;;;;;5007065;28;20472;-73
2021/12/19 08:12:04;;;;;;;1.63;1.30;;;6.50;98.20;;;;;;5007545;28;21114;-74
2021/12/19 08:14:31;;;;;;;1.60;1.30;;;6.50;98.20;;;;;;5007823;28;20468;-73
2021/12/19 08:16:58;;;;;;;1.60;1.30;;;6.50;98.20;;;;;;5007972;28;20460;-73
2021/12/19 08:19:25;;;;;;;1.60;1.30;;;6.50;98.20;;;;;;5007868;28;20470;-73
2021/12/19 08:21:53;;;;;;;1.60;1.30;;;6.50;98.20;;;;;;5007246;28;20472;-73
2021/12/19 08:24:22;;;;;;;1.63;1.30;;;6.50;98.20;;;;;;5007670;28;20976;-73
2021/12/19 08:26:49;;;;;;;1.60;1.30;;;6.60;98.20;;;;;;5007749;28;20508;-73
2021/12/19 08:29:17;;;;;;;1.60;1.27;;;6.60;98.20;;;;;;5007683;28;20468;-73
2021/12/19 08:31:44;;;;;;;1.60;1.27;;;6.60;98.20;;;;;;5006269;28;20885;-74
2021/12/19 08:34:11;;;;;;;1.70;1.37;;;6.60;98.20;;;;;;5006173;28;20463;-73
2021/12/19 08:36:38;;;;;;;1.60;1.30;;;6.60;98.20;;;;;;5007348;28;20552;-73
2021/12/19 08:39:07;;;;;;;2.03;1.80;;;6.60;98.20;;;;;;5007373;28;20475;-73
2021/12/19 08:41:35;;;;;;;1.70;1.30;;;6.60;98.20;;;;;;5005772;28;21006;-73
2021/12/19 08:44:01;;;;;;;1.67;1.30;;;6.70;98.20;;;;;;5001652;28;20547;-73
2021/12/19 08:46:32;;;;;;;1.73;1.63;;;6.70;98.20;;;;;;5003067;28;20503;-74
2021/12/19 08:48:59;;;;;;;1.60;1.30;;;6.70;98.20;;;;;;5005336;28;20901;-73
2021/12/19 08:51:27;;;;;;;1.60;1.30;;;6.70;98.20;;;;;;5001510;28;20582;-74
2021/12/19 08:53:54;;;;;;;1.60;1.30;;;6.70;98.20;;;;;;5006173;28;20945;-74
2021/12/19 08:56:21;;;;;;;1.70;1.40;;;6.70;98.20;;;;;;5005461;28;20467;-73
2021/12/19 08:58:48;;;;;;;1.70;1.40;;;6.80;98.20;;;;;;5006728;28;20472;-73
2021/12/19 09:01:15;;;;;;;1.70;1.40;;;6.80;98.20;;;;;;5004695;28;20484;-73
2021/12/19 09:03:46;;;;;;;1.60;1.20;;;6.80;98.20;;;;;;5005540;28;20478;-73
2021/12/19 09:06:14;;;;;;;1.60;1.27;;;6.80;98.20;;;;;;5006056;28;20503;-73
2021/12/19 09:08:41;;;;;;;1.63;1.20;;;6.80;98.20;;;;;;5006888;28;20551;-73
2021/12/19 09:11:08;;;;;;;1.60;1.30;;;6.80;98.20;;;;;;5006794;28;20488;-73
2021/12/19 09:13:35;;;;;;;1.63;1.30;;;6.80;98.20;;;;;;5005821;28;20542;-73
2021/12/19 09:16:02;;;;;;;1.60;1.30;;;6.90;98.20;;;;;;5005044;28;20468;-73
2021/12/19 09:18:29;;;;;;;1.60;1.30;;;6.90;98.20;;;;;;5007263;28;20507;-73
2021/12/19 09:20:58;;;;;;;1.60;1.20;;;6.90;98.20;;;;;;5006347;28;20497;-73
2021/12/19 09:23:27;;;;;;;1.60;1.30;;;6.90;98.20;;;;;;5006200;28;20468;-73
2021/12/19 09:25:54;;;;;;;1.60;1.27;;;7.00;98.20;;;;;;5006359;28;20593;-74
2021/12/19 09:28:20;;;;;;;1.60;1.20;;;7.00;98.20;;;;;;5006851;28;20543;-73
2021/12/19 09:30:47;;;;;;;1.60;1.20;;;7.00;98.20;;;;;;5006265;28;20526;-73
2021/12/19 09:33:14;;;;;;;1.63;1.30;;;7.10;98.20;;;;;;5006279;28;20540;-73
2021/12/19 09:35:41;;;;;;;1.60;1.20;;;7.10;98.20;;;;;;5005425;28;20479;-73
2021/12/19 09:38:10;;;;;;;1.60;1.27;;;7.10;98.20;;;;;;5006102;28;20547;-74
2021/12/19 09:40:39;;;;;;;1.60;1.20;;;7.10;98.20;;;;;;5005878;28;21022;-73
2021/12/19 09:43:10;;;;;;;1.60;1.23;;;7.10;98.20;;;;;;5004800;28;20530;-73
2021/12/19 09:45:38;;;;;;;1.60;1.27;;;7.10;98.20;;;;;;5005746;28;20460;-73
2021/12/19 09:48:06;;;;;;;1.60;1.30;;;7.20;98.20;;;;;;5007357;28;21102;-75
2021/12/19 09:50:33;;;;;;;1.60;1.20;;;7.20;98.20;;;;;;5005785;28;20490;-74
2021/12/19 09:53:00;;;;;;;1.63;1.40;;;7.30;98.20;;;;;;5006173;28;20463;-74
2021/12/19 09:55:29;;;;;;;1.60;1.27;;;7.30;98.20;;;;;;5008404;28;20937;-74
2021/12/19 09:57:57;;;;;;;1.70;1.40;;;7.30;98.20;;;;;;5008995;28;20547;-74
2021/12/19 10:00:24;;;;;;;1.60;1.20;;;7.40;98.20;;;;;;5007986;28;20484;-74
2021/12/19 10:02:51;;;;;;;1.60;1.27;;;7.40;98.20;;;;;;5009565;28;21200;-74
2021/12/19 10:05:21;;;;;;;1.60;1.30;;;7.40;98.20;;;;;;5009765;28;20468;-74
2021/12/19 10:07:52;;;;;;;1.63;1.23;;;7.40;98.20;;;;;;5009793;28;20484;-74
2021/12/19 10:10:26;;;;;;;1.60;1.20;;;7.40;98.20;;;;;;5009914;28;20496;-73
2021/12/19 10:12:57;;;;;;;1.60;1.20;;;7.40;98.20;;;;;;5008650;28;21029;-73
2021/12/19 10:15:31;;;;;;;1.60;1.20;;;7.50;98.20;;;;;;5010156;28;20967;-73
2021/12/19 10:18:07;;;;;;;1.60;1.20;;;7.50;98.20;;;;;;5010538;28;20507;-74
2021/12/19 10:20:47;;;;;;;1.60;1.20;;;7.60;98.20;;;;;;5005651;28;20501;-74
2021/12/19 10:23:17;;;;;;;1.60;1.20;;;7.70;98.20;;;;;;5009319;28;20464;-74
2021/12/19 10:25:45;;;;;;;1.70;1.30;;;7.70;98.20;;;;;;5009551;28;20709;-74
2021/12/19 10:28:13;;;;;;;1.63;1.20;;;7.70;98.20;;;;;;5009378;28;20897;-74
2021/12/19 10:30:46;;;;;;;1.70;1.30;;;7.70;98.20;;;;;;5005883;28;20484;-74
2021/12/19 10:33:15;;;;;;;1.60;1.20;;;7.70;98.20;;;;;;5008252;28;20961;-74
2021/12/19 10:35:44;;;;;;;1.60;1.20;;;7.70;98.20;;;;;;5009225;28;20472;-73
2021/12/19 10:38:16;;;;;;;1.80;1.47;;;7.70;98.20;;;;;;5009152;28;20949;-74
2021/12/19 10:40:46;;;;;;;1.60;1.30;;;7.70;98.20;;;;;;5009433;28;20517;-74
2021/12/19 10:43:17;;;;;;;1.60;1.23;;;7.70;98.20;;;;;;5008804;28;20560;-74
2021/12/19 10:45:47;;;;;;;1.60;1.20;;;7.70;98.20;;;;;;5007614;28;20541;-74
2021/12/19 10:48:26;;;;;;;1.63;1.30;;;7.70;98.20;;;;;;5008878;28;20583;-74
2021/12/19 10:50:57;;;;;;;1.60;1.20;;;7.70;98.20;;;;;;5004909;28;20488;-73
2021/12/19 10:53:26;;;;;;;1.60;1.10;;;7.70;98.20;;;;;;5008588;28;20468;-73
2021/12/19 10:55:54;;;;;;;1.60;1.20;;;7.70;98.20;;;;;;5007290;28;20940;-74
2021/12/19 10:58:35;;;;;;;1.60;1.23;;;7.70;98.20;;;;;;5006645;28;21014;-74
2021/12/19 11:01:07;;;;;;;1.60;1.20;;;7.70;98.20;;;;;;5005275;28;20492;-74
2021/12/19 11:03:38;;;;;;;1.60;1.20;;;7.70;98.20;;;;;;5006055;28;20555;-74
2021/12/19 11:06:24;;;;;;;1.60;1.30;;;7.70;98.20;;;;;;5001092;28;20464;-74
2021/12/19 11:08:53;;;;;;;1.60;1.20;;;7.80;98.20;;;;;;5006986;28;20866;-75
2021/12/19 11:11:34;;;;;;;1.60;1.20;;;7.80;98.20;;;;;;5007268;28;20488;-72
2021/12/19 11:14:04;;;;;;;1.60;1.20;;;7.90;98.20;;;;;;5008325;28;20507;-75
2021/12/19 11:16:32;;;;;;;1.60;1.20;;;7.90;98.20;;;;;;5009478;28;20567;-75
2021/12/19 11:18:59;;;;;;;1.60;1.20;;;7.90;98.20;;;;;;5009205;28;20469;-75
2021/12/19 11:21:32;;;;;;;1.67;1.27;;;8.00;98.20;;;;;;5008474;28;20499;-75
2021/12/19 11:24:00;;;;;;;1.60;1.20;;;8.00;98.20;;;;;;5008168;28;20495;-74
2021/12/19 11:26:28;;;;;;;1.60;1.20;;;8.00;98.20;;;;;;5001337;28;20583;-74
2021/12/19 11:28:56;;;;;;;1.60;1.20;;;7.90;98.20;;;;;;5004186;28;20492;-75
2021/12/19 11:31:27;;;;;;;1.60;1.20;;;7.90;98.20;;;;;;5005646;28;20898;-75
2021/12/19 11:34:21;;;;;;;1.67;1.30;;;7.90;98.20;;;;;;5005446;28;20475;-75
2021/12/19 11:36:57;;;;;;;1.60;1.20;;;7.90;98.20;;;;;;5004631;28;20468;-75
2021/12/19 11:39:31;;;;;;;1.67;1.30;;;7.90;98.20;;;;;;5005661;28;20478;-74
2021/12/19 11:42:13;;;;;;;1.67;1.30;;;7.90;98.20;;;;;;5004918;28;20499;-75
2021/12/19 11:44:51;;;;;;;1.60;1.20;;;7.90;98.20;;;;;;5002061;28;20564;-76
2021/12/19 11:47:42;;;;;;;1.63;1.20;;;7.90;98.20;;;;;;5005340;28;20583;-77
2021/12/19 11:50:19;;;;;;;1.60;1.20;;;7.90;98.20;;;;;;5003321;28;20974;-74
2021/12/19 11:52:46;;;;;;;1.83;1.63;;;7.90;98.20;;;;;;5004331;28;20879;-75
2021/12/19 11:55:26;;;;;;;1.60;1.20;;;7.90;98.20;;;;;;5005712;28;20999;-75
2021/12/19 11:58:20;;;;;;;1.60;1.30;;;7.90;98.20;;;;;;5002434;28;20901;-74
2021/12/19 12:00:59;;;;;;;1.67;1.20;;;7.80;98.20;;;;;;4997065;28;20492;-74
2021/12/19 12:03:31;;;;;;;1.60;1.20;;;7.80;98.20;;;;;;5002746;28;20472;-74
2021/12/19 12:06:33;;;;;;;1.70;1.30;;;7.80;98.20;;;;;;5004108;28;20476;-74
2021/12/19 12:09:33;;;;;;;1.70;1.40;;;7.80;98.20;;;;;;5003512;28;21030;-75
2021/12/19 12:12:13;;;;;;;1.63;1.30;;;7.80;98.20;;;;;;5003165;28;20473;-75
2021/12/19 12:14:43;;;;;;;1.63;1.20;;;7.70;98.20;;;;;;5000812;28;20674;-75
2021/12/19 12:17:18;;;;;;;1.60;1.30;;;7.70;98.20;;;;;;5003588;28;20582;-74
2021/12/19 12:19:49;;;;;;;1.60;1.20;;;7.70;98.20;;;;;;5004741;28;20502;-76
2021/12/19 12:22:50;;;;;;;1.60;1.20;;;7.70;98.20;;;;;;5003778;28;20464;-75
2021/12/19 12:25:20;;;;;;;1.67;1.30;;;7.70;98.20;;;;;;4996976;28;20463;-74
2021/12/19 12:27:54;;;;;;;1.60;1.20;;;7.70;98.20;;;;;;5004766;28;20499;-74
2021/12/19 12:30:28;;;;;;;1.63;1.30;;;7.70;98.20;;;;;;5004594;28;20929;-74
2021/12/19 12:32:57;;;;;;;1.63;1.30;;;7.70;98.20;;;;;;5004264;28;20825;-76
2021/12/19 12:35:28;;;;;;;2.90;2.60;;;7.70;98.20;;;;;;5006256;28;20563;-73
2021/12/19 12:37:55;;;;;;;1.60;1.20;;;7.70;98.20;;;;;;5004084;28;20496;-76
2021/12/19 12:40:29;;;;;;;1.63;1.30;;;7.70;98.20;;;;;;5004382;28;20518;-74
2021/12/19 12:43:02;;;;;;;1.60;1.20;;;7.60;98.20;;;;;;5002430;28;20906;-75
2021/12/19 12:45:31;;;;;;;1.60;1.30;;;7.60;98.20;;;;;;5004363;28;21042;-74
2021/12/19 12:47:58;;;;;;;1.60;1.30;;;7.60;98.20;;;;;;5001769;28;21099;-75
2021/12/19 12:50:27;;;;;;;1.60;1.20;;;7.50;98.20;;;;;;5001521;28;20571;-74
2021/12/19 12:52:58;;;;;;;1.60;1.20;;;7.50;98.20;;;;;;5003827;28;20484;-76
2021/12/19 12:55:26;;;;;;;1.60;1.27;;;7.50;98.20;;;;;;5003815;28;20910;-74
2021/12/19 12:57:53;;;;;;;1.60;1.30;;;7.50;98.20;;;;;;4995826;28;20536;-74
2021/12/19 13:00:22;;;;;;;1.60;1.20;;;7.50;98.20;;;;;;4997732;28;20569;-75
2021/12/19 13:03:08;;;;;;;1.70;1.30;;;7.50;98.20;;;;;;4999290;28;20504;-74
2021/12/19 13:05:39;;;;;;;1.67;1.30;;;7.50;98.20;;;;;;5000466;28;20614;-74
2021/12/19 13:08:09;;;;;;;1.63;1.17;;;7.50;98.20;;;;;;4998353;28;20520;-74
2021/12/19 13:10:36;;;;;;;1.60;1.20;;;7.50;98.20;;;;;;5000401;28;20496;-74
2021/12/19 13:13:09;;;;;;;1.70;1.40;;;7.50;98.20;;;;;;4998980;28;20487;-75
2021/12/19 13:15:37;;;;;;;1.60;1.30;;;7.50;98.20;;;;;;5001892;28;20968;-74
2021/12/19 13:18:05;;;;;;;1.60;1.30;;;7.50;98.20;;;;;;5002241;28;20460;-74
2021/12/19 13:20:36;;;;;;;1.60;1.20;;;7.50;98.20;;;;;;5002073;28;20663;-76
2021/12/19 13:23:05;;;;;;;1.60;1.20;;;7.40;98.20;;;;;;5001508;28;20491;-74
2021/12/19 13:25:38;;;;;;;1.67;1.30;;;7.40;98.20;;;;;;5000853;28;20468;-75
2021/12/19 13:28:08;;;;;;;1.60;1.20;;;7.40;98.20;;;;;;5003003;28;20488;-75
2021/12/19 13:30:39;;;;;;;1.60;1.20;;;7.40;98.20;;;;;;5006301;28;21000;-75
2021/12/19 13:33:08;;;;;;;1.60;1.30;;;7.40;98.20;;;;;;5005070;28;20503;-76
2021/12/19 13:35:38;;;;;;;1.63;1.27;;;7.40;98.20;;;;;;5006067;28;20977;-76
2021/12/19 13:38:09;;;;;;;1.60;1.20;;;7.40;98.20;;;;;;5003202;28;20540;-76
2021/12/19 13:40:39;;;;;;;1.60;1.20;;;7.30;98.20;;;;;;5007314;28;20484;-74
2021/12/19 13:43:07;;;;;;;1.60;1.30;;;7.30;98.20;;;;;;5002714;28;20468;-75
2021/12/19 13:45:48;;;;;;;1.60;1.20;;;7.20;98.20;;;;;;5005677;28;20590;-75
2021/12/19 13:48:28;;;;;;;1.67;1.30;;;7.20;98.20;;;;;;5006807;28;20846;-75
2021/12/19 13:51:00;;;;;;;1.63;1.30;;;7.20;98.20;;;;;;5007129;28;20488;-75
2021/12/19 13:53:30;;;;;;;1.60;1.20;;;7.20;98.20;;;;;;5003850;28;20460;-75
2021/12/19 13:56:00;;;;;;;1.60;1.30;;;7.20;98.20;;;;;;5005244;28;20464;-76
2021/12/19 13:58:30;;;;;;;1.70;1.40;;;7.20;98.20;;;;;;5006413;28;20487;-74
2021/12/19 14:00:58;;;;;;;1.60;1.30;;;7.20;98.20;;;;;;5005700;28;20562;-74
2021/12/19 14:03:46;;;;;;;1.60;1.30;;;7.30;98.20;;;;;;5006078;28;20546;-74
2021/12/19 14:06:15;;;;;;;1.70;1.40;;;7.30;98.20;;;;;;5005630;28;20464;-75
2021/12/19 14:08:53;;;;;;;1.60;1.30;;;7.30;98.20;;;;;;5005622;28;20503;-74
2021/12/19 14:11:21;;;;;;;1.63;1.30;;;7.30;98.20;;;;;;5005908;28;20565;-74